sensor_id;sensor_type;location;lat;lon;timestamp;P1;durP1;ratioP1;P2;durP2;ratioP2
4057;SDS011;2044;48.692;9.020;2022-10-13T00:01:51;46.33;;;21.63;;
4057;SDS011;2044;48.692;9.020;2022-10-13T00:04:17;43.10;;;18.80;;
4057;SDS011;2044;48.692;9.020;2022-10-13T00:06:45;48.53;;;20.10;;
4057;SDS011;2044;48.692;9.020;2022-10-13T00:09:12;47.93;;;20.37;;
4057;SDS011;2044;48.692;9.020;2022-10-13T00:11:39;47.00;;;19.73;;
4057;SDS011;2044;48.692;9.020;2022-10-13T00:14:05;47.37;;;21.37;;
4057;SDS011;2044;48.692;9.020;2022-10-13T00:16:32;53.67;;;21.80;;
4057;SDS011;2044;48.692;9.020;2022-10-13T00:18:59;49.10;;;23.17;;
4057;SDS011;2044;48.692;9.020;2022-10-13T00:21:26;58.90;;;21.27;;
4057;SDS011;2044;48.692;9.020;2022-10-13T00:23:55;49.80;;;19.90;;
4057;SDS011;2044;48.692;9.020;2022-10-13T00:26:23;50.53;;;20.60;;
4057;SDS011;2044;48.692;9.020;2022-10-13T00:28:52;47.33;;;19.73;;
4057;SDS011;2044;48.692;9.020;2022-10-13T00:31:19;51.83;;;20.33;;
4057;SDS011;2044;48.692;9.020;2022-10-13T00:33:47;54.60;;;20.83;;
4057;SDS011;2044;48.692;9.020;2022-10-13T00:36:14;43.60;;;21.00;;
4057;SDS011;2044;48.692;9.020;2022-10-13T00:38:41;52.50;;;20.00;;
4057;SDS011;2044;48.692;9.020;2022-10-13T00:41:09;47.00;;;21.50;;
4057;SDS011;2044;48.692;9.020;2022-10-13T00:43:46;50.73;;;20.07;;
4057;SDS011;2044;48.692;9.020;2022-10-13T00:46:15;45.90;;;18.77;;
4057;SDS011;2044;48.692;9.020;2022-10-13T00:48:42;50.43;;;19.43;;
4057;SDS011;2044;48.692;9.020;2022-10-13T00:51:10;49.13;;;18.60;;
4057;SDS011;2044;48.692;9.020;2022-10-13T00:53:39;58.13;;;19.80;;
4057;SDS011;2044;48.692;9.020;2022-10-13T00:56:07;46.57;;;19.27;;
4057;SDS011;2044;48.692;9.020;2022-10-13T00:58:38;53.67;;;20.50;;
4057;SDS011;2044;48.692;9.020;2022-10-13T01:01:05;46.87;;;19.73;;
4057;SDS011;2044;48.692;9.020;2022-10-13T01:03:33;49.43;;;20.90;;
4057;SDS011;2044;48.692;9.020;2022-10-13T01:06:01;47.13;;;20.10;;
4057;SDS011;2044;48.692;9.020;2022-10-13T01:08:29;42.23;;;19.50;;
4057;SDS011;2044;48.692;9.020;2022-10-13T01:10:59;47.23;;;19.33;;
4057;SDS011;2044;48.692;9.020;2022-10-13T01:13:40;59.43;;;21.53;;
4057;SDS011;2044;48.692;9.020;2022-10-13T01:16:12;52.60;;;20.20;;
4057;SDS011;2044;48.692;9.020;2022-10-13T01:18:49;46.90;;;19.90;;
4057;SDS011;2044;48.692;9.020;2022-10-13T01:21:23;56.53;;;21.80;;
4057;SDS011;2044;48.692;9.020;2022-10-13T01:24:02;50.30;;;19.57;;
4057;SDS011;2044;48.692;9.020;2022-10-13T01:29:47;50.67;;;20.97;;
4057;SDS011;2044;48.692;9.020;2022-10-13T01:32:45;56.70;;;18.27;;
4057;SDS011;2044;48.692;9.020;2022-10-13T01:35:19;52.17;;;20.30;;
4057;SDS011;2044;48.692;9.020;2022-10-13T01:37:54;60.47;;;20.87;;
4057;SDS011;2044;48.692;9.020;2022-10-13T01:40:29;49.87;;;19.37;;
4057;SDS011;2044;48.692;9.020;2022-10-13T01:43:03;47.27;;;20.40;;
4057;SDS011;2044;48.692;9.020;2022-10-13T01:45:37;61.27;;;22.90;;
4057;SDS011;2044;48.692;9.020;2022-10-13T01:48:07;51.90;;;20.83;;
4057;SDS011;2044;48.692;9.020;2022-10-13T01:50:35;44.97;;;22.07;;
4057;SDS011;2044;48.692;9.020;2022-10-13T01:53:03;57.43;;;22.13;;
4057;SDS011;2044;48.692;9.020;2022-10-13T01:55:31;56.93;;;20.63;;
4057;SDS011;2044;48.692;9.020;2022-10-13T01:57:57;57.50;;;23.50;;
4057;SDS011;2044;48.692;9.020;2022-10-13T02:00:24;50.83;;;20.00;;
4057;SDS011;2044;48.692;9.020;2022-10-13T02:02:55;54.17;;;22.47;;
4057;SDS011;2044;48.692;9.020;2022-10-13T02:05:32;58.40;;;21.93;;
4057;SDS011;2044;48.692;9.020;2022-10-13T02:08:14;49.43;;;19.50;;
4057;SDS011;2044;48.692;9.020;2022-10-13T02:10:46;47.63;;;19.43;;
4057;SDS011;2044;48.692;9.020;2022-10-13T02:13:19;56.70;;;22.27;;
4057;SDS011;2044;48.692;9.020;2022-10-13T02:15:50;52.00;;;20.87;;
4057;SDS011;2044;48.692;9.020;2022-10-13T02:18:22;52.87;;;21.73;;
4057;SDS011;2044;48.692;9.020;2022-10-13T02:20:54;58.87;;;21.20;;
4057;SDS011;2044;48.692;9.020;2022-10-13T02:23:21;46.37;;;21.30;;
4057;SDS011;2044;48.692;9.020;2022-10-13T02:25:48;52.23;;;19.77;;
4057;SDS011;2044;48.692;9.020;2022-10-13T02:28:16;51.47;;;20.30;;
4057;SDS011;2044;48.692;9.020;2022-10-13T02:30:43;55.43;;;20.77;;
4057;SDS011;2044;48.692;9.020;2022-10-13T02:33:11;57.83;;;22.53;;
4057;SDS011;2044;48.692;9.020;2022-10-13T02:35:40;60.77;;;23.00;;
4057;SDS011;2044;48.692;9.020;2022-10-13T02:38:08;59.80;;;22.33;;
4057;SDS011;2044;48.692;9.020;2022-10-13T02:40:34;56.23;;;22.53;;
4057;SDS011;2044;48.692;9.020;2022-10-13T02:43:02;55.40;;;21.27;;
4057;SDS011;2044;48.692;9.020;2022-10-13T02:45:28;55.23;;;22.50;;
4057;SDS011;2044;48.692;9.020;2022-10-13T02:47:55;53.50;;;22.67;;
4057;SDS011;2044;48.692;9.020;2022-10-13T02:50:22;56.47;;;22.93;;
4057;SDS011;2044;48.692;9.020;2022-10-13T02:52:50;59.63;;;21.97;;
4057;SDS011;2044;48.692;9.020;2022-10-13T02:55:17;47.40;;;20.90;;
4057;SDS011;2044;48.692;9.020;2022-10-13T02:57:44;54.83;;;22.20;;
4057;SDS011;2044;48.692;9.020;2022-10-13T03:00:11;56.27;;;21.93;;
4057;SDS011;2044;48.692;9.020;2022-10-13T03:02:39;52.70;;;20.47;;
4057;SDS011;2044;48.692;9.020;2022-10-13T03:05:06;48.50;;;21.83;;
4057;SDS011;2044;48.692;9.020;2022-10-13T03:07:33;53.17;;;21.17;;
4057;SDS011;2044;48.692;9.020;2022-10-13T03:10:02;44.47;;;18.70;;
4057;SDS011;2044;48.692;9.020;2022-10-13T03:12:30;63.53;;;21.90;;
4057;SDS011;2044;48.692;9.020;2022-10-13T03:14:56;47.03;;;19.40;;
4057;SDS011;2044;48.692;9.020;2022-10-13T03:17:23;47.67;;;19.60;;
4057;SDS011;2044;48.692;9.020;2022-10-13T03:19:50;47.27;;;21.40;;
4057;SDS011;2044;48.692;9.020;2022-10-13T03:22:16;36.50;;;17.10;;
4057;SDS011;2044;48.692;9.020;2022-10-13T03:24:43;41.00;;;17.37;;
4057;SDS011;2044;48.692;9.020;2022-10-13T03:27:11;39.37;;;17.50;;
4057;SDS011;2044;48.692;9.020;2022-10-13T03:29:38;36.70;;;14.67;;
4057;SDS011;2044;48.692;9.020;2022-10-13T03:32:05;38.60;;;17.33;;
4057;SDS011;2044;48.692;9.020;2022-10-13T03:34:31;35.40;;;15.50;;
4057;SDS011;2044;48.692;9.020;2022-10-13T03:36:58;36.70;;;17.40;;
4057;SDS011;2044;48.692;9.020;2022-10-13T03:39:25;41.20;;;15.57;;
4057;SDS011;2044;48.692;9.020;2022-10-13T03:41:52;35.70;;;17.90;;
4057;SDS011;2044;48.692;9.020;2022-10-13T03:44:20;46.00;;;17.83;;
4057;SDS011;2044;48.692;9.020;2022-10-13T03:46:46;40.77;;;17.63;;
4057;SDS011;2044;48.692;9.020;2022-10-13T03:49:13;33.33;;;16.30;;
4057;SDS011;2044;48.692;9.020;2022-10-13T03:51:41;35.37;;;15.03;;
4057;SDS011;2044;48.692;9.020;2022-10-13T03:54:08;30.50;;;14.73;;
4057;SDS011;2044;48.692;9.020;2022-10-13T03:56:36;38.13;;;16.20;;
4057;SDS011;2044;48.692;9.020;2022-10-13T03:59:03;31.20;;;15.57;;
4057;SDS011;2044;48.692;9.020;2022-10-13T04:01:31;32.07;;;14.40;;
4057;SDS011;2044;48.692;9.020;2022-10-13T04:03:59;32.50;;;14.43;;
4057;SDS011;2044;48.692;9.020;2022-10-13T04:06:27;34.60;;;16.30;;
4057;SDS011;2044;48.692;9.020;2022-10-13T04:08:54;36.43;;;15.23;;
4057;SDS011;2044;48.692;9.020;2022-10-13T04:11:21;35.33;;;15.03;;
4057;SDS011;2044;48.692;9.020;2022-10-13T04:13:48;33.97;;;15.73;;
4057;SDS011;2044;48.692;9.020;2022-10-13T04:16:16;35.17;;;16.57;;
4057;SDS011;2044;48.692;9.020;2022-10-13T04:18:48;35.47;;;15.17;;
4057;SDS011;2044;48.692;9.020;2022-10-13T04:21:16;37.90;;;15.47;;
4057;SDS011;2044;48.692;9.020;2022-10-13T04:23:43;33.40;;;14.90;;
4057;SDS011;2044;48.692;9.020;2022-10-13T04:26:13;35.23;;;14.70;;
4057;SDS011;2044;48.692;9.020;2022-10-13T04:28:41;30.93;;;14.97;;
4057;SDS011;2044;48.692;9.020;2022-10-13T04:31:08;27.60;;;13.70;;
4057;SDS011;2044;48.692;9.020;2022-10-13T04:33:34;34.63;;;16.00;;
4057;SDS011;2044;48.692;9.020;2022-10-13T04:36:03;37.73;;;16.23;;
4057;SDS011;2044;48.692;9.020;2022-10-13T04:38:31;32.20;;;14.80;;
4057;SDS011;2044;48.692;9.020;2022-10-13T04:40:57;40.90;;;17.40;;
4057;SDS011;2044;48.692;9.020;2022-10-13T04:43:26;38.47;;;15.60;;
4057;SDS011;2044;48.692;9.020;2022-10-13T04:45:58;51.47;;;17.27;;
4057;SDS011;2044;48.692;9.020;2022-10-13T04:48:25;34.73;;;16.23;;
4057;SDS011;2044;48.692;9.020;2022-10-13T04:50:57;35.07;;;16.60;;
4057;SDS011;2044;48.692;9.020;2022-10-13T04:53:25;41.30;;;16.60;;
4057;SDS011;2044;48.692;9.020;2022-10-13T04:55:53;34.27;;;16.73;;
4057;SDS011;2044;48.692;9.020;2022-10-13T04:58:20;36.13;;;15.37;;
4057;SDS011;2044;48.692;9.020;2022-10-13T05:00:47;43.10;;;18.30;;
4057;SDS011;2044;48.692;9.020;2022-10-13T05:03:13;44.87;;;18.60;;
4057;SDS011;2044;48.692;9.020;2022-10-13T05:05:40;42.87;;;17.90;;
4057;SDS011;2044;48.692;9.020;2022-10-13T05:08:07;39.77;;;17.20;;
4057;SDS011;2044;48.692;9.020;2022-10-13T05:10:35;47.13;;;18.00;;
4057;SDS011;2044;48.692;9.020;2022-10-13T05:13:02;44.83;;;19.00;;
4057;SDS011;2044;48.692;9.020;2022-10-13T05:15:29;31.33;;;16.60;;
4057;SDS011;2044;48.692;9.020;2022-10-13T05:17:56;36.97;;;16.27;;
4057;SDS011;2044;48.692;9.020;2022-10-13T05:20:23;44.90;;;17.37;;
4057;SDS011;2044;48.692;9.020;2022-10-13T05:22:50;40.90;;;16.23;;
4057;SDS011;2044;48.692;9.020;2022-10-13T05:25:17;41.53;;;16.50;;
4057;SDS011;2044;48.692;9.020;2022-10-13T05:27:45;43.40;;;19.20;;
4057;SDS011;2044;48.692;9.020;2022-10-13T05:30:12;41.53;;;17.90;;
4057;SDS011;2044;48.692;9.020;2022-10-13T05:32:39;42.07;;;17.13;;
4057;SDS011;2044;48.692;9.020;2022-10-13T05:35:06;37.63;;;17.13;;
4057;SDS011;2044;48.692;9.020;2022-10-13T05:37:33;42.60;;;18.00;;
4057;SDS011;2044;48.692;9.020;2022-10-13T05:40:00;41.13;;;17.33;;
4057;SDS011;2044;48.692;9.020;2022-10-13T05:42:27;37.47;;;15.73;;
4057;SDS011;2044;48.692;9.020;2022-10-13T05:44:56;36.87;;;16.30;;
4057;SDS011;2044;48.692;9.020;2022-10-13T05:47:23;37.30;;;15.30;;
4057;SDS011;2044;48.692;9.020;2022-10-13T05:49:52;35.90;;;15.77;;
4057;SDS011;2044;48.692;9.020;2022-10-13T05:52:19;43.00;;;17.07;;
4057;SDS011;2044;48.692;9.020;2022-10-13T05:54:48;37.57;;;16.30;;
4057;SDS011;2044;48.692;9.020;2022-10-13T05:57:19;47.03;;;17.37;;
4057;SDS011;2044;48.692;9.020;2022-10-13T05:59:50;42.20;;;17.23;;
4057;SDS011;2044;48.692;9.020;2022-10-13T06:02:21;38.93;;;18.47;;
4057;SDS011;2044;48.692;9.020;2022-10-13T06:04:52;43.50;;;16.77;;
4057;SDS011;2044;48.692;9.020;2022-10-13T06:07:22;35.40;;;16.50;;
4057;SDS011;2044;48.692;9.020;2022-10-13T06:09:49;43.23;;;17.50;;
4057;SDS011;2044;48.692;9.020;2022-10-13T06:12:16;44.63;;;17.90;;
4057;SDS011;2044;48.692;9.020;2022-10-13T06:14:43;49.87;;;18.00;;
4057;SDS011;2044;48.692;9.020;2022-10-13T06:17:09;38.43;;;17.37;;
4057;SDS011;2044;48.692;9.020;2022-10-13T06:19:37;36.47;;;16.53;;
4057;SDS011;2044;48.692;9.020;2022-10-13T06:22:04;44.47;;;17.30;;
4057;SDS011;2044;48.692;9.020;2022-10-13T06:24:31;43.13;;;17.30;;
4057;SDS011;2044;48.692;9.020;2022-10-13T06:26:58;37.60;;;17.07;;
4057;SDS011;2044;48.692;9.020;2022-10-13T06:29:25;40.23;;;18.10;;
4057;SDS011;2044;48.692;9.020;2022-10-13T06:31:51;38.63;;;17.37;;
4057;SDS011;2044;48.692;9.020;2022-10-13T06:34:18;37.67;;;16.17;;
4057;SDS011;2044;48.692;9.020;2022-10-13T06:36:46;38.03;;;17.77;;
4057;SDS011;2044;48.692;9.020;2022-10-13T06:39:13;29.30;;;14.67;;
4057;SDS011;2044;48.692;9.020;2022-10-13T06:41:40;38.10;;;17.47;;
4057;SDS011;2044;48.692;9.020;2022-10-13T06:44:06;38.00;;;15.90;;
4057;SDS011;2044;48.692;9.020;2022-10-13T06:46:33;32.93;;;15.57;;
4057;SDS011;2044;48.692;9.020;2022-10-13T06:49:00;32.87;;;15.23;;
4057;SDS011;2044;48.692;9.020;2022-10-13T06:51:27;34.87;;;15.67;;
4057;SDS011;2044;48.692;9.020;2022-10-13T06:53:55;27.83;;;14.20;;
4057;SDS011;2044;48.692;9.020;2022-10-13T06:56:22;33.67;;;15.97;;
4057;SDS011;2044;48.692;9.020;2022-10-13T06:58:49;33.80;;;15.50;;
4057;SDS011;2044;48.692;9.020;2022-10-13T07:01:15;36.60;;;15.93;;
4057;SDS011;2044;48.692;9.020;2022-10-13T07:03:42;39.27;;;14.30;;
4057;SDS011;2044;48.692;9.020;2022-10-13T07:06:09;29.80;;;14.00;;
4057;SDS011;2044;48.692;9.020;2022-10-13T07:08:35;28.77;;;13.10;;
4057;SDS011;2044;48.692;9.020;2022-10-13T07:11:08;27.17;;;12.80;;
4057;SDS011;2044;48.692;9.020;2022-10-13T07:13:36;30.77;;;12.90;;
4057;SDS011;2044;48.692;9.020;2022-10-13T07:16:03;24.93;;;11.77;;
4057;SDS011;2044;48.692;9.020;2022-10-13T07:18:31;24.80;;;12.20;;
4057;SDS011;2044;48.692;9.020;2022-10-13T07:20:58;24.73;;;11.77;;
4057;SDS011;2044;48.692;9.020;2022-10-13T07:23:26;23.60;;;12.73;;
4057;SDS011;2044;48.692;9.020;2022-10-13T07:25:53;22.33;;;11.63;;
4057;SDS011;2044;48.692;9.020;2022-10-13T07:28:22;25.97;;;11.30;;
4057;SDS011;2044;48.692;9.020;2022-10-13T07:30:50;25.70;;;11.93;;
4057;SDS011;2044;48.692;9.020;2022-10-13T07:33:18;24.27;;;12.03;;
4057;SDS011;2044;48.692;9.020;2022-10-13T07:35:45;25.07;;;11.73;;
4057;SDS011;2044;48.692;9.020;2022-10-13T07:38:12;20.13;;;10.90;;
4057;SDS011;2044;48.692;9.020;2022-10-13T07:40:38;32.43;;;12.57;;
4057;SDS011;2044;48.692;9.020;2022-10-13T07:43:05;20.90;;;11.60;;
4057;SDS011;2044;48.692;9.020;2022-10-13T07:45:33;20.47;;;10.03;;
4057;SDS011;2044;48.692;9.020;2022-10-13T07:48:00;17.77;;;10.33;;
4057;SDS011;2044;48.692;9.020;2022-10-13T07:50:27;25.97;;;10.87;;
4057;SDS011;2044;48.692;9.020;2022-10-13T07:52:54;19.43;;;10.33;;
4057;SDS011;2044;48.692;9.020;2022-10-13T07:55:20;21.50;;;9.90;;
4057;SDS011;2044;48.692;9.020;2022-10-13T07:57:47;17.27;;;9.73;;
4057;SDS011;2044;48.692;9.020;2022-10-13T08:00:14;18.30;;;10.20;;
4057;SDS011;2044;48.692;9.020;2022-10-13T08:02:42;20.60;;;10.53;;
4057;SDS011;2044;48.692;9.020;2022-10-13T08:05:09;19.20;;;10.07;;
4057;SDS011;2044;48.692;9.020;2022-10-13T08:07:36;15.30;;;8.60;;
4057;SDS011;2044;48.692;9.020;2022-10-13T08:10:03;22.63;;;13.07;;
4057;SDS011;2044;48.692;9.020;2022-10-13T08:12:30;21.27;;;10.30;;
4057;SDS011;2044;48.692;9.020;2022-10-13T08:14:57;17.87;;;9.57;;
4057;SDS011;2044;48.692;9.020;2022-10-13T08:17:24;18.03;;;8.60;;
4057;SDS011;2044;48.692;9.020;2022-10-13T08:19:53;16.60;;;8.77;;
4057;SDS011;2044;48.692;9.020;2022-10-13T08:22:20;15.57;;;7.93;;
4057;SDS011;2044;48.692;9.020;2022-10-13T08:24:47;15.30;;;7.90;;
4057;SDS011;2044;48.692;9.020;2022-10-13T08:27:15;19.10;;;9.90;;
4057;SDS011;2044;48.692;9.020;2022-10-13T08:29:45;18.60;;;9.13;;
4057;SDS011;2044;48.692;9.020;2022-10-13T08:32:11;16.20;;;9.27;;
4057;SDS011;2044;48.692;9.020;2022-10-13T08:34:38;20.87;;;8.80;;
4057;SDS011;2044;48.692;9.020;2022-10-13T08:37:10;16.97;;;9.00;;
4057;SDS011;2044;48.692;9.020;2022-10-13T08:39:38;15.13;;;8.40;;
4057;SDS011;2044;48.692;9.020;2022-10-13T08:42:10;17.57;;;8.43;;
4057;SDS011;2044;48.692;9.020;2022-10-13T08:44:40;13.30;;;9.07;;
4057;SDS011;2044;48.692;9.020;2022-10-13T08:47:12;14.93;;;9.53;;
4057;SDS011;2044;48.692;9.020;2022-10-13T08:49:45;17.30;;;9.10;;
4057;SDS011;2044;48.692;9.020;2022-10-13T08:52:15;14.17;;;8.20;;
4057;SDS011;2044;48.692;9.020;2022-10-13T08:54:46;16.13;;;9.30;;
4057;SDS011;2044;48.692;9.020;2022-10-13T08:57:13;13.33;;;7.73;;
4057;SDS011;2044;48.692;9.020;2022-10-13T08:59:40;12.67;;;7.63;;
4057;SDS011;2044;48.692;9.020;2022-10-13T09:02:10;15.40;;;6.80;;
4057;SDS011;2044;48.692;9.020;2022-10-13T09:04:39;15.63;;;7.67;;
4057;SDS011;2044;48.692;9.020;2022-10-13T09:07:10;12.33;;;8.20;;
4057;SDS011;2044;48.692;9.020;2022-10-13T09:09:41;14.47;;;8.67;;
4057;SDS011;2044;48.692;9.020;2022-10-13T09:12:09;14.93;;;8.27;;
4057;SDS011;2044;48.692;9.020;2022-10-13T09:14:37;13.87;;;7.67;;
4057;SDS011;2044;48.692;9.020;2022-10-13T09:17:13;15.53;;;8.67;;
4057;SDS011;2044;48.692;9.020;2022-10-13T09:19:42;12.43;;;7.97;;
4057;SDS011;2044;48.692;9.020;2022-10-13T09:22:14;13.87;;;8.20;;
4057;SDS011;2044;48.692;9.020;2022-10-13T09:24:48;16.07;;;9.13;;
4057;SDS011;2044;48.692;9.020;2022-10-13T09:27:38;11.40;;;7.60;;
4057;SDS011;2044;48.692;9.020;2022-10-13T09:30:17;13.07;;;8.00;;
4057;SDS011;2044;48.692;9.020;2022-10-13T09:32:52;14.33;;;7.40;;
4057;SDS011;2044;48.692;9.020;2022-10-13T09:35:30;11.13;;;7.53;;
4057;SDS011;2044;48.692;9.020;2022-10-13T09:38:02;13.37;;;7.70;;
4057;SDS011;2044;48.692;9.020;2022-10-13T09:40:31;11.33;;;6.10;;
4057;SDS011;2044;48.692;9.020;2022-10-13T09:42:59;12.33;;;7.53;;
4057;SDS011;2044;48.692;9.020;2022-10-13T09:45:28;10.30;;;7.50;;
4057;SDS011;2044;48.692;9.020;2022-10-13T09:47:56;12.60;;;7.30;;
4057;SDS011;2044;48.692;9.020;2022-10-13T09:50:25;11.60;;;6.70;;
4057;SDS011;2044;48.692;9.020;2022-10-13T09:52:55;11.27;;;6.90;;
4057;SDS011;2044;48.692;9.020;2022-10-13T09:55:41;10.67;;;7.83;;
4057;SDS011;2044;48.692;9.020;2022-10-13T09:58:11;10.03;;;6.53;;
4057;SDS011;2044;48.692;9.020;2022-10-13T10:00:43;11.93;;;7.00;;
4057;SDS011;2044;48.692;9.020;2022-10-13T10:03:12;12.40;;;6.80;;
4057;SDS011;2044;48.692;9.020;2022-10-13T10:05:43;10.83;;;6.80;;
4057;SDS011;2044;48.692;9.020;2022-10-13T10:08:15;12.83;;;7.67;;
4057;SDS011;2044;48.692;9.020;2022-10-13T10:10:47;12.67;;;7.20;;
4057;SDS011;2044;48.692;9.020;2022-10-13T10:13:14;13.97;;;7.93;;
4057;SDS011;2044;48.692;9.020;2022-10-13T10:15:46;9.70;;;6.60;;
4057;SDS011;2044;48.692;9.020;2022-10-13T10:18:23;16.40;;;7.93;;
4057;SDS011;2044;48.692;9.020;2022-10-13T10:20:58;14.53;;;8.10;;
4057;SDS011;2044;48.692;9.020;2022-10-13T10:23:33;14.57;;;7.90;;
4057;SDS011;2044;48.692;9.020;2022-10-13T10:26:14;14.23;;;7.67;;
4057;SDS011;2044;48.692;9.020;2022-10-13T10:31:45;12.90;;;7.40;;
4057;SDS011;2044;48.692;9.020;2022-10-13T10:34:27;12.57;;;7.73;;
4057;SDS011;2044;48.692;9.020;2022-10-13T10:37:04;12.90;;;8.07;;
4057;SDS011;2044;48.692;9.020;2022-10-13T10:39:43;13.80;;;8.00;;
4057;SDS011;2044;48.692;9.020;2022-10-13T10:42:19;14.17;;;7.90;;
4057;SDS011;2044;48.692;9.020;2022-10-13T10:45:05;23.23;;;8.03;;
4057;SDS011;2044;48.692;9.020;2022-10-13T10:47:41;13.37;;;8.30;;
4057;SDS011;2044;48.692;9.020;2022-10-13T10:50:12;14.70;;;9.70;;
4057;SDS011;2044;48.692;9.020;2022-10-13T10:52:42;14.23;;;7.83;;
4057;SDS011;2044;48.692;9.020;2022-10-13T10:55:18;15.90;;;8.20;;
4057;SDS011;2044;48.692;9.020;2022-10-13T10:57:51;15.67;;;7.50;;
4057;SDS011;2044;48.692;9.020;2022-10-13T11:00:24;13.90;;;7.67;;
4057;SDS011;2044;48.692;9.020;2022-10-13T11:02:53;10.23;;;7.30;;
4057;SDS011;2044;48.692;9.020;2022-10-13T11:05:26;14.13;;;7.67;;
4057;SDS011;2044;48.692;9.020;2022-10-13T11:08:24;10.00;;;7.30;;
4057;SDS011;2044;48.692;9.020;2022-10-13T11:13:55;12.00;;;6.50;;
4057;SDS011;2044;48.692;9.020;2022-10-13T11:16:30;9.40;;;7.03;;
4057;SDS011;2044;48.692;9.020;2022-10-13T11:18:59;10.70;;;6.80;;
4057;SDS011;2044;48.692;9.020;2022-10-13T11:24:42;11.80;;;6.90;;
4057;SDS011;2044;48.692;9.020;2022-10-13T11:27:17;11.13;;;7.23;;
4057;SDS011;2044;48.692;9.020;2022-10-13T11:29:54;10.47;;;6.57;;
4057;SDS011;2044;48.692;9.020;2022-10-13T11:35:19;11.30;;;7.10;;
4057;SDS011;2044;48.692;9.020;2022-10-13T11:37:50;9.60;;;7.10;;
4057;SDS011;2044;48.692;9.020;2022-10-13T11:40:30;9.60;;;6.67;;
4057;SDS011;2044;48.692;9.020;2022-10-13T11:43:15;11.83;;;6.80;;
4057;SDS011;2044;48.692;9.020;2022-10-13T11:45:54;12.57;;;6.93;;
4057;SDS011;2044;48.692;9.020;2022-10-13T11:51:34;9.00;;;6.70;;
4057;SDS011;2044;48.692;9.020;2022-10-13T11:54:18;11.77;;;6.70;;
4057;SDS011;2044;48.692;9.020;2022-10-13T11:56:51;11.13;;;7.60;;
4057;SDS011;2044;48.692;9.020;2022-10-13T11:59:20;8.60;;;6.33;;
4057;SDS011;2044;48.692;9.020;2022-10-13T12:01:53;14.23;;;8.37;;
4057;SDS011;2044;48.692;9.020;2022-10-13T12:04:21;11.67;;;6.27;;
4057;SDS011;2044;48.692;9.020;2022-10-13T12:06:53;11.97;;;6.70;;
4057;SDS011;2044;48.692;9.020;2022-10-13T12:09:26;13.63;;;7.30;;
4057;SDS011;2044;48.692;9.020;2022-10-13T12:11:56;13.60;;;7.00;;
4057;SDS011;2044;48.692;9.020;2022-10-13T12:14:26;15.00;;;7.13;;
4057;SDS011;2044;48.692;9.020;2022-10-13T12:16:58;9.23;;;7.03;;
4057;SDS011;2044;48.692;9.020;2022-10-13T12:19:27;12.37;;;7.77;;
4057;SDS011;2044;48.692;9.020;2022-10-13T12:21:56;10.10;;;7.13;;
4057;SDS011;2044;48.692;9.020;2022-10-13T12:24:24;11.30;;;6.37;;
4057;SDS011;2044;48.692;9.020;2022-10-13T12:26:52;8.87;;;6.50;;
4057;SDS011;2044;48.692;9.020;2022-10-13T12:29:21;11.10;;;7.20;;
4057;SDS011;2044;48.692;9.020;2022-10-13T12:31:50;9.83;;;6.40;;
4057;SDS011;2044;48.692;9.020;2022-10-13T12:34:20;10.30;;;6.43;;
4057;SDS011;2044;48.692;9.020;2022-10-13T12:36:56;10.93;;;5.93;;
4057;SDS011;2044;48.692;9.020;2022-10-13T12:39:27;11.37;;;6.80;;
4057;SDS011;2044;48.692;9.020;2022-10-13T12:41:56;12.67;;;7.00;;
4057;SDS011;2044;48.692;9.020;2022-10-13T12:44:25;7.97;;;6.57;;
4057;SDS011;2044;48.692;9.020;2022-10-13T12:46:54;11.00;;;5.93;;
4057;SDS011;2044;48.692;9.020;2022-10-13T12:49:29;14.73;;;7.23;;
4057;SDS011;2044;48.692;9.020;2022-10-13T12:52:03;8.57;;;5.30;;
4057;SDS011;2044;48.692;9.020;2022-10-13T12:54:38;11.10;;;6.13;;
4057;SDS011;2044;48.692;9.020;2022-10-13T12:57:18;9.57;;;7.00;;
4057;SDS011;2044;48.692;9.020;2022-10-13T12:59:47;9.90;;;5.10;;
4057;SDS011;2044;48.692;9.020;2022-10-13T13:02:17;7.37;;;6.20;;
4057;SDS011;2044;48.692;9.020;2022-10-13T13:04:47;11.83;;;6.57;;
4057;SDS011;2044;48.692;9.020;2022-10-13T13:07:21;9.63;;;6.00;;
4057;SDS011;2044;48.692;9.020;2022-10-13T13:12:50;11.43;;;6.67;;
4057;SDS011;2044;48.692;9.020;2022-10-13T13:15:32;9.83;;;6.37;;
4057;SDS011;2044;48.692;9.020;2022-10-13T13:21:01;10.17;;;6.00;;
4057;SDS011;2044;48.692;9.020;2022-10-13T13:23:30;10.90;;;5.93;;
4057;SDS011;2044;48.692;9.020;2022-10-13T13:25:59;13.87;;;6.20;;
4057;SDS011;2044;48.692;9.020;2022-10-13T13:28:28;13.13;;;5.70;;
4057;SDS011;2044;48.692;9.020;2022-10-13T13:30:56;11.77;;;6.63;;
4057;SDS011;2044;48.692;9.020;2022-10-13T13:33:23;10.00;;;6.90;;
4057;SDS011;2044;48.692;9.020;2022-10-13T13:35:50;13.40;;;7.20;;
4057;SDS011;2044;48.692;9.020;2022-10-13T13:38:18;12.73;;;8.17;;
4057;SDS011;2044;48.692;9.020;2022-10-13T13:40:45;11.10;;;6.90;;
4057;SDS011;2044;48.692;9.020;2022-10-13T13:43:12;10.27;;;6.80;;
4057;SDS011;2044;48.692;9.020;2022-10-13T13:45:39;10.30;;;6.63;;
4057;SDS011;2044;48.692;9.020;2022-10-13T13:48:05;12.27;;;7.67;;
4057;SDS011;2044;48.692;9.020;2022-10-13T13:50:33;10.60;;;6.27;;
4057;SDS011;2044;48.692;9.020;2022-10-13T13:53:02;13.37;;;6.87;;
4057;SDS011;2044;48.692;9.020;2022-10-13T13:55:31;9.80;;;7.03;;
4057;SDS011;2044;48.692;9.020;2022-10-13T13:57:58;12.77;;;6.73;;
4057;SDS011;2044;48.692;9.020;2022-10-13T14:00:25;12.13;;;7.30;;
4057;SDS011;2044;48.692;9.020;2022-10-13T14:02:52;12.43;;;6.33;;
4057;SDS011;2044;48.692;9.020;2022-10-13T14:05:18;8.67;;;6.47;;
4057;SDS011;2044;48.692;9.020;2022-10-13T14:07:45;10.67;;;6.83;;
4057;SDS011;2044;48.692;9.020;2022-10-13T14:10:12;7.13;;;5.73;;
4057;SDS011;2044;48.692;9.020;2022-10-13T14:12:40;15.70;;;6.60;;
4057;SDS011;2044;48.692;9.020;2022-10-13T14:15:08;13.17;;;5.57;;
4057;SDS011;2044;48.692;9.020;2022-10-13T14:17:35;10.83;;;6.27;;
4057;SDS011;2044;48.692;9.020;2022-10-13T14:20:02;10.33;;;6.60;;
4057;SDS011;2044;48.692;9.020;2022-10-13T14:22:29;6.47;;;5.30;;
4057;SDS011;2044;48.692;9.020;2022-10-13T14:24:56;5.73;;;4.27;;
4057;SDS011;2044;48.692;9.020;2022-10-13T14:27:23;6.90;;;4.93;;
4057;SDS011;2044;48.692;9.020;2022-10-13T14:29:51;8.20;;;4.60;;
4057;SDS011;2044;48.692;9.020;2022-10-13T14:32:17;11.23;;;5.13;;
4057;SDS011;2044;48.692;9.020;2022-10-13T14:34:44;12.13;;;5.57;;
4057;SDS011;2044;48.692;9.020;2022-10-13T14:37:11;13.57;;;5.20;;
4057;SDS011;2044;48.692;9.020;2022-10-13T14:39:38;7.90;;;4.97;;
4057;SDS011;2044;48.692;9.020;2022-10-13T14:42:05;11.03;;;5.50;;
4057;SDS011;2044;48.692;9.020;2022-10-13T14:44:31;9.10;;;5.13;;
4057;SDS011;2044;48.692;9.020;2022-10-13T14:46:59;8.00;;;4.60;;
4057;SDS011;2044;48.692;9.020;2022-10-13T14:49:26;5.83;;;4.60;;
4057;SDS011;2044;48.692;9.020;2022-10-13T14:51:53;9.40;;;5.30;;
4057;SDS011;2044;48.692;9.020;2022-10-13T14:54:19;6.83;;;5.00;;
4057;SDS011;2044;48.692;9.020;2022-10-13T14:56:46;9.00;;;5.27;;
4057;SDS011;2044;48.692;9.020;2022-10-13T14:59:13;7.40;;;6.00;;
4057;SDS011;2044;48.692;9.020;2022-10-13T15:01:40;13.63;;;6.67;;
4057;SDS011;2044;48.692;9.020;2022-10-13T15:04:09;13.30;;;6.83;;
4057;SDS011;2044;48.692;9.020;2022-10-13T15:06:36;12.20;;;7.70;;
4057;SDS011;2044;48.692;9.020;2022-10-13T15:09:04;10.43;;;6.80;;
4057;SDS011;2044;48.692;9.020;2022-10-13T15:11:31;15.30;;;7.03;;
4057;SDS011;2044;48.692;9.020;2022-10-13T15:13:58;15.77;;;8.40;;
4057;SDS011;2044;48.692;9.020;2022-10-13T15:16:25;11.63;;;6.40;;
4057;SDS011;2044;48.692;9.020;2022-10-13T15:18:54;9.50;;;6.30;;
4057;SDS011;2044;48.692;9.020;2022-10-13T15:21:23;12.33;;;7.17;;
4057;SDS011;2044;48.692;9.020;2022-10-13T15:23:50;10.37;;;6.97;;
4057;SDS011;2044;48.692;9.020;2022-10-13T15:26:17;11.83;;;6.90;;
4057;SDS011;2044;48.692;9.020;2022-10-13T15:28:45;11.97;;;7.30;;
4057;SDS011;2044;48.692;9.020;2022-10-13T15:31:14;10.07;;;5.97;;
4057;SDS011;2044;48.692;9.020;2022-10-13T15:33:42;10.83;;;6.53;;